sensor_id;sensor_type;location;lat;lon;timestamp;P1;durP1;ratioP1;P2;durP2;ratioP2
65206;SDS011;58477;48.072;11.970;2022-09-27T00:02:14;2.80;;;1.90;;
65206;SDS011;58477;48.072;11.970;2022-09-27T00:04:39;3.33;;;2.33;;
65206;SDS011;58477;48.072;11.970;2022-09-27T00:07:04;4.50;;;1.90;;
65206;SDS011;58477;48.072;11.970;2022-09-27T00:09:31;3.10;;;1.90;;
65206;SDS011;58477;48.072;11.970;2022-09-27T00:11:56;2.03;;;1.83;;
65206;SDS011;58477;48.072;11.970;2022-09-27T00:14:22;6.35;;;2.30;;
65206;SDS011;58477;48.072;11.970;2022-09-27T00:16:47;3.70;;;2.33;;
65206;SDS011;58477;48.072;11.970;2022-09-27T00:19:14;3.20;;;2.05;;
65206;SDS011;58477;48.072;11.970;2022-09-27T00:21:42;2.28;;;2.08;;
65206;SDS011;58477;48.072;11.970;2022-09-27T00:24:10;2.88;;;2.10;;
65206;SDS011;58477;48.072;11.970;2022-09-27T00:26:43;2.70;;;2.15;;
65206;SDS011;58477;48.072;11.970;2022-09-27T00:29:11;1.90;;;1.73;;
65206;SDS011;58477;48.072;11.970;2022-09-27T00:31:37;3.70;;;2.05;;
65206;SDS011;58477;48.072;11.970;2022-09-27T00:34:04;3.35;;;2.30;;
65206;SDS011;58477;48.072;11.970;2022-09-27T00:36:30;2.40;;;2.00;;
65206;SDS011;58477;48.072;11.970;2022-09-27T00:38:58;2.30;;;2.10;;
65206;SDS011;58477;48.072;11.970;2022-09-27T00:41:25;3.42;;;2.10;;
65206;SDS011;58477;48.072;11.970;2022-09-27T00:43:55;3.92;;;2.33;;
65206;SDS011;58477;48.072;11.970;2022-09-27T00:49:08;2.63;;;2.42;;
65206;SDS011;58477;48.072;11.970;2022-09-27T00:51:40;3.50;;;2.08;;
65206;SDS011;58477;48.072;11.970;2022-09-27T00:54:10;2.10;;;1.90;;
65206;SDS011;58477;48.072;11.970;2022-09-27T00:56:38;3.72;;;1.92;;
65206;SDS011;58477;48.072;11.970;2022-09-27T00:59:06;2.30;;;2.10;;
65206;SDS011;58477;48.072;11.970;2022-09-27T01:01:38;3.35;;;1.98;;
65206;SDS011;58477;48.072;11.970;2022-09-27T01:04:08;6.15;;;2.33;;
65206;SDS011;58477;48.072;11.970;2022-09-27T01:06:35;2.33;;;2.13;;
65206;SDS011;58477;48.072;11.970;2022-09-27T01:09:02;3.25;;;2.60;;
65206;SDS011;58477;48.072;11.970;2022-09-27T01:22:11;3.28;;;2.35;;
65206;SDS011;58477;48.072;11.970;2022-09-27T01:30:17;4.25;;;2.42;;
65206;SDS011;58477;48.072;11.970;2022-09-27T01:32:59;4.43;;;2.10;;
65206;SDS011;58477;48.072;11.970;2022-09-27T01:38:22;3.22;;;2.38;;
65206;SDS011;58477;48.072;11.970;2022-09-27T01:43:47;2.50;;;2.05;;
65206;SDS011;58477;48.072;11.970;2022-09-27T01:46:46;2.92;;;2.67;;
65206;SDS011;58477;48.072;11.970;2022-09-27T01:49:21;2.67;;;2.38;;
65206;SDS011;58477;48.072;11.970;2022-09-27T01:51:54;2.70;;;2.40;;
65206;SDS011;58477;48.072;11.970;2022-09-27T01:54:27;3.33;;;3.03;;
65206;SDS011;58477;48.072;11.970;2022-09-27T01:57:19;3.10;;;2.25;;
65206;SDS011;58477;48.072;11.970;2022-09-27T01:59:49;2.80;;;2.42;;
65206;SDS011;58477;48.072;11.970;2022-09-27T02:05:43;3.70;;;2.95;;
65206;SDS011;58477;48.072;11.970;2022-09-27T02:08:37;6.82;;;3.20;;
65206;SDS011;58477;48.072;11.970;2022-09-27T02:13:57;3.13;;;2.83;;
65206;SDS011;58477;48.072;11.970;2022-09-27T02:16:42;3.90;;;3.38;;
65206;SDS011;58477;48.072;11.970;2022-09-27T02:22:31;4.47;;;3.00;;
65206;SDS011;58477;48.072;11.970;2022-09-27T02:25:03;3.40;;;3.10;;
65206;SDS011;58477;48.072;11.970;2022-09-27T02:30:32;4.68;;;2.40;;
65206;SDS011;58477;48.072;11.970;2022-09-27T02:33:11;6.28;;;2.70;;
65206;SDS011;58477;48.072;11.970;2022-09-27T02:35:36;3.13;;;2.13;;
65206;SDS011;58477;48.072;11.970;2022-09-27T02:38:02;3.33;;;1.92;;
65206;SDS011;58477;48.072;11.970;2022-09-27T02:40:31;3.38;;;2.50;;
65206;SDS011;58477;48.072;11.970;2022-09-27T02:42:59;3.05;;;2.55;;
65206;SDS011;58477;48.072;11.970;2022-09-27T02:45:31;3.80;;;2.75;;
65206;SDS011;58477;48.072;11.970;2022-09-27T02:50:58;4.43;;;2.60;;
65206;SDS011;58477;48.072;11.970;2022-09-27T02:53:44;2.83;;;2.47;;
65206;SDS011;58477;48.072;11.970;2022-09-27T02:56:46;4.68;;;2.72;;
65206;SDS011;58477;48.072;11.970;2022-09-27T03:00:11;3.22;;;2.92;;
65206;SDS011;58477;48.072;11.970;2022-09-27T03:02:58;4.00;;;2.80;;
65206;SDS011;58477;48.072;11.970;2022-09-27T03:11:24;6.10;;;2.90;;
65206;SDS011;58477;48.072;11.970;2022-09-27T03:13:50;3.78;;;2.30;;
65206;SDS011;58477;48.072;11.970;2022-09-27T03:16:16;2.22;;;2.05;;
65206;SDS011;58477;48.072;11.970;2022-09-27T03:21:42;2.78;;;2.03;;
65206;SDS011;58477;48.072;11.970;2022-09-27T03:24:08;2.28;;;2.08;;
65206;SDS011;58477;48.072;11.970;2022-09-27T03:26:33;3.08;;;2.78;;
65206;SDS011;58477;48.072;11.970;2022-09-27T03:28:59;9.05;;;2.80;;
65206;SDS011;58477;48.072;11.970;2022-09-27T03:31:25;3.50;;;2.72;;
65206;SDS011;58477;48.072;11.970;2022-09-27T03:34:24;3.28;;;2.65;;
65206;SDS011;58477;48.072;11.970;2022-09-27T03:36:50;3.58;;;2.67;;
65206;SDS011;58477;48.072;11.970;2022-09-27T03:39:16;2.45;;;2.25;;
65206;SDS011;58477;48.072;11.970;2022-09-27T03:41:41;2.92;;;2.47;;
65206;SDS011;58477;48.072;11.970;2022-09-27T03:44:07;3.20;;;2.00;;
65206;SDS011;58477;48.072;11.970;2022-09-27T03:46:32;4.32;;;2.30;;
65206;SDS011;58477;48.072;11.970;2022-09-27T03:48:58;7.50;;;3.10;;
65206;SDS011;58477;48.072;11.970;2022-09-27T03:51:24;5.25;;;2.60;;
65206;SDS011;58477;48.072;11.970;2022-09-27T03:53:49;4.43;;;2.42;;
65206;SDS011;58477;48.072;11.970;2022-09-27T03:56:15;5.15;;;2.38;;
65206;SDS011;58477;48.072;11.970;2022-09-27T03:58:40;5.72;;;2.22;;
65206;SDS011;58477;48.072;11.970;2022-09-27T04:01:06;2.47;;;2.25;;
65206;SDS011;58477;48.072;11.970;2022-09-27T04:03:33;3.75;;;2.45;;
65206;SDS011;58477;48.072;11.970;2022-09-27T04:06:19;5.03;;;2.22;;
65206;SDS011;58477;48.072;11.970;2022-09-27T04:08:44;3.40;;;2.38;;
65206;SDS011;58477;48.072;11.970;2022-09-27T04:11:11;3.75;;;2.45;;
65206;SDS011;58477;48.072;11.970;2022-09-27T04:13:40;2.70;;;2.20;;
65206;SDS011;58477;48.072;11.970;2022-09-27T04:16:06;2.40;;;2.20;;
65206;SDS011;58477;48.072;11.970;2022-09-27T04:19:01;3.70;;;2.55;;
65206;SDS011;58477;48.072;11.970;2022-09-27T04:21:51;2.90;;;2.25;;
65206;SDS011;58477;48.072;11.970;2022-09-27T04:24:17;6.50;;;2.60;;
65206;SDS011;58477;48.072;11.970;2022-09-27T04:26:55;5.18;;;2.40;;
65206;SDS011;58477;48.072;11.970;2022-09-27T04:29:24;4.15;;;2.85;;
65206;SDS011;58477;48.072;11.970;2022-09-27T04:35:39;3.20;;;2.50;;
65206;SDS011;58477;48.072;11.970;2022-09-27T04:38:25;4.35;;;2.25;;
65206;SDS011;58477;48.072;11.970;2022-09-27T04:40:50;6.47;;;2.80;;
65206;SDS011;58477;48.072;11.970;2022-09-27T04:47:03;5.13;;;2.58;;
65206;SDS011;58477;48.072;11.970;2022-09-27T04:49:29;3.00;;;2.60;;
65206;SDS011;58477;48.072;11.970;2022-09-27T04:51:54;3.20;;;2.25;;
65206;SDS011;58477;48.072;11.970;2022-09-27T04:54:21;3.45;;;2.30;;
65206;SDS011;58477;48.072;11.970;2022-09-27T04:56:56;4.13;;;2.47;;
65206;SDS011;58477;48.072;11.970;2022-09-27T04:59:22;4.10;;;2.50;;
65206;SDS011;58477;48.072;11.970;2022-09-27T05:01:47;2.67;;;2.47;;
65206;SDS011;58477;48.072;11.970;2022-09-27T05:04:30;2.97;;;2.65;;
65206;SDS011;58477;48.072;11.970;2022-09-27T05:06:56;4.63;;;2.65;;
65206;SDS011;58477;48.072;11.970;2022-09-27T05:09:27;2.67;;;2.47;;
65206;SDS011;58477;48.072;11.970;2022-09-27T05:11:54;2.95;;;2.50;;
65206;SDS011;58477;48.072;11.970;2022-09-27T05:14:23;2.72;;;2.33;;
65206;SDS011;58477;48.072;11.970;2022-09-27T05:17:15;2.55;;;2.22;;
65206;SDS011;58477;48.072;11.970;2022-09-27T05:19:41;5.57;;;4.32;;
65206;SDS011;58477;48.072;11.970;2022-09-27T05:22:25;5.53;;;2.40;;
65206;SDS011;58477;48.072;11.970;2022-09-27T05:24:50;3.92;;;2.75;;
65206;SDS011;58477;48.072;11.970;2022-09-27T05:27:17;3.35;;;3.05;;
65206;SDS011;58477;48.072;11.970;2022-09-27T05:29:45;4.28;;;3.13;;
65206;SDS011;58477;48.072;11.970;2022-09-27T05:32:17;3.88;;;2.55;;
65206;SDS011;58477;48.072;11.970;2022-09-27T05:34:47;3.20;;;2.75;;
65206;SDS011;58477;48.072;11.970;2022-09-27T05:37:13;3.17;;;2.88;;
65206;SDS011;58477;48.072;11.970;2022-09-27T05:39:40;4.25;;;3.00;;
65206;SDS011;58477;48.072;11.970;2022-09-27T05:42:06;3.65;;;2.60;;
65206;SDS011;58477;48.072;11.970;2022-09-27T05:44:34;3.47;;;2.67;;
65206;SDS011;58477;48.072;11.970;2022-09-27T05:47:02;7.40;;;3.42;;
65206;SDS011;58477;48.072;11.970;2022-09-27T05:49:29;4.93;;;3.20;;
65206;SDS011;58477;48.072;11.970;2022-09-27T05:51:54;4.18;;;3.50;;
65206;SDS011;58477;48.072;11.970;2022-09-27T05:54:20;4.93;;;3.55;;
65206;SDS011;58477;48.072;11.970;2022-09-27T05:56:45;3.67;;;3.00;;
65206;SDS011;58477;48.072;11.970;2022-09-27T06:02:18;2.92;;;2.30;;
65206;SDS011;58477;48.072;11.970;2022-09-27T06:04:46;2.35;;;2.15;;
65206;SDS011;58477;48.072;11.970;2022-09-27T06:07:41;3.08;;;2.30;;
65206;SDS011;58477;48.072;11.970;2022-09-27T06:10:22;6.45;;;2.10;;
65206;SDS011;58477;48.072;11.970;2022-09-27T06:12:47;2.20;;;2.00;;
65206;SDS011;58477;48.072;11.970;2022-09-27T06:15:35;2.05;;;1.70;;
65206;SDS011;58477;48.072;11.970;2022-09-27T06:18:04;1.50;;;1.30;;
65206;SDS011;58477;48.072;11.970;2022-09-27T06:20:41;1.80;;;1.30;;
65206;SDS011;58477;48.072;11.970;2022-09-27T06:25:35;4.03;;;1.35;;
65206;SDS011;58477;48.072;11.970;2022-09-27T06:28:21;1.20;;;1.10;;
65206;SDS011;58477;48.072;11.970;2022-09-27T06:30:51;1.42;;;1.00;;
65206;SDS011;58477;48.072;11.970;2022-09-27T06:33:25;1.50;;;1.00;;
65206;SDS011;58477;48.072;11.970;2022-09-27T06:35:59;2.20;;;1.15;;
65206;SDS011;58477;48.072;11.970;2022-09-27T06:38:26;1.90;;;1.00;;
65206;SDS011;58477;48.072;11.970;2022-09-27T06:41:09;1.02;;;1.00;;
65206;SDS011;58477;48.072;11.970;2022-09-27T06:43:53;0.80;;;0.80;;
65206;SDS011;58477;48.072;11.970;2022-09-27T06:46:33;2.13;;;1.10;;
65206;SDS011;58477;48.072;11.970;2022-09-27T06:49:17;2.30;;;1.23;;
65206;SDS011;58477;48.072;11.970;2022-09-27T06:51:45;1.15;;;0.70;;
65206;SDS011;58477;48.072;11.970;2022-09-27T06:54:10;1.88;;;0.80;;
65206;SDS011;58477;48.072;11.970;2022-09-27T06:56:36;3.08;;;0.70;;
65206;SDS011;58477;48.072;11.970;2022-09-27T06:59:02;0.57;;;0.57;;
65206;SDS011;58477;48.072;11.970;2022-09-27T07:01:46;3.10;;;0.70;;
65206;SDS011;58477;48.072;11.970;2022-09-27T07:04:16;1.38;;;0.80;;
65206;SDS011;58477;48.072;11.970;2022-09-27T07:07:00;0.60;;;0.60;;
65206;SDS011;58477;48.072;11.970;2022-09-27T07:09:30;1.83;;;0.68;;
65206;SDS011;58477;48.072;11.970;2022-09-27T07:11:55;0.65;;;0.40;;
65206;SDS011;58477;48.072;11.970;2022-09-27T07:14:21;4.55;;;0.60;;
65206;SDS011;58477;48.072;11.970;2022-09-27T07:16:47;3.08;;;0.60;;
65206;SDS011;58477;48.072;11.970;2022-09-27T07:19:12;1.40;;;0.70;;
65206;SDS011;58477;48.072;11.970;2022-09-27T07:21:39;1.90;;;0.80;;
65206;SDS011;58477;48.072;11.970;2022-09-27T07:24:05;1.75;;;0.77;;
65206;SDS011;58477;48.072;11.970;2022-09-27T07:26:31;0.70;;;0.68;;
65206;SDS011;58477;48.072;11.970;2022-09-27T07:28:57;1.95;;;0.68;;
65206;SDS011;58477;48.072;11.970;2022-09-27T07:31:25;1.45;;;0.52;;
65206;SDS011;58477;48.072;11.970;2022-09-27T07:33:50;1.00;;;0.60;;
65206;SDS011;58477;48.072;11.970;2022-09-27T07:36:17;2.97;;;0.73;;
65206;SDS011;58477;48.072;11.970;2022-09-27T07:38:44;1.42;;;0.50;;
65206;SDS011;58477;48.072;11.970;2022-09-27T07:41:11;1.20;;;0.60;;
65206;SDS011;58477;48.072;11.970;2022-09-27T07:43:39;1.27;;;0.63;;
65206;SDS011;58477;48.072;11.970;2022-09-27T07:46:06;0.70;;;0.68;;
65206;SDS011;58477;48.072;11.970;2022-09-27T07:48:52;2.20;;;0.80;;
65206;SDS011;58477;48.072;11.970;2022-09-27T07:54:27;1.55;;;0.95;;
65206;SDS011;58477;48.072;11.970;2022-09-27T07:57:13;3.78;;;0.80;;
65206;SDS011;58477;48.072;11.970;2022-09-27T07:59:48;1.33;;;0.77;;
65206;SDS011;58477;48.072;11.970;2022-09-27T08:02:17;2.83;;;0.88;;
65206;SDS011;58477;48.072;11.970;2022-09-27T08:04:43;2.70;;;0.60;;
65206;SDS011;58477;48.072;11.970;2022-09-27T08:07:11;1.85;;;0.82;;
65206;SDS011;58477;48.072;11.970;2022-09-27T08:09:38;1.92;;;0.70;;
65206;SDS011;58477;48.072;11.970;2022-09-27T08:12:04;2.47;;;0.50;;
65206;SDS011;58477;48.072;11.970;2022-09-27T08:14:30;1.85;;;0.50;;
65206;SDS011;58477;48.072;11.970;2022-09-27T08:16:56;1.33;;;0.45;;
65206;SDS011;58477;48.072;11.970;2022-09-27T08:19:27;4.03;;;0.75;;
65206;SDS011;58477;48.072;11.970;2022-09-27T08:22:20;0.75;;;0.57;;
65206;SDS011;58477;48.072;11.970;2022-09-27T08:24:53;1.70;;;0.70;;
65206;SDS011;58477;48.072;11.970;2022-09-27T08:27:53;0.90;;;0.70;;
65206;SDS011;58477;48.072;11.970;2022-09-27T08:30:31;1.30;;;0.90;;
65206;SDS011;58477;48.072;11.970;2022-09-27T08:32:59;0.95;;;0.50;;
65206;SDS011;58477;48.072;11.970;2022-09-27T08:35:27;0.35;;;0.35;;
65206;SDS011;58477;48.072;11.970;2022-09-27T08:37:55;1.17;;;0.40;;
65206;SDS011;58477;48.072;11.970;2022-09-27T08:40:23;2.25;;;0.50;;
65206;SDS011;58477;48.072;11.970;2022-09-27T08:43:05;0.40;;;0.40;;
65206;SDS011;58477;48.072;11.970;2022-09-27T08:48:48;3.22;;;0.73;;
65206;SDS011;58477;48.072;11.970;2022-09-27T08:51:20;0.35;;;0.30;;
65206;SDS011;58477;48.072;11.970;2022-09-27T08:53:50;0.30;;;0.30;;
65206;SDS011;58477;48.072;11.970;2022-09-27T08:56:23;0.20;;;0.20;;
65206;SDS011;58477;48.072;11.970;2022-09-27T08:58:56;0.30;;;0.30;;
65206;SDS011;58477;48.072;11.970;2022-09-27T09:01:30;0.40;;;0.40;;
65206;SDS011;58477;48.072;11.970;2022-09-27T09:04:27;0.50;;;0.50;;
65206;SDS011;58477;48.072;11.970;2022-09-27T09:07:07;0.50;;;0.30;;
65206;SDS011;58477;48.072;11.970;2022-09-27T09:10:02;3.45;;;0.75;;
65206;SDS011;58477;48.072;11.970;2022-09-27T09:13:18;0.50;;;0.32;;
65206;SDS011;58477;48.072;11.970;2022-09-27T09:16:12;0.30;;;0.30;;
65206;SDS011;58477;48.072;11.970;2022-09-27T09:30:23;0.50;;;0.50;;
65206;SDS011;58477;48.072;11.970;2022-09-27T09:35:39;1.20;;;0.63;;
65206;SDS011;58477;48.072;11.970;2022-09-27T09:38:09;0.60;;;0.30;;
65206;SDS011;58477;48.072;11.970;2022-09-27T09:43:39;0.38;;;0.38;;
65206;SDS011;58477;48.072;11.970;2022-09-27T09:51:19;0.30;;;0.30;;
65206;SDS011;58477;48.072;11.970;2022-09-27T09:53:55;0.28;;;0.28;;
65206;SDS011;58477;48.072;11.970;2022-09-27T09:56:39;0.28;;;0.28;;
65206;SDS011;58477;48.072;11.970;2022-09-27T09:59:28;0.22;;;0.22;;
65206;SDS011;58477;48.072;11.970;2022-09-27T10:02:16;0.43;;;0.20;;
65206;SDS011;58477;48.072;11.970;2022-09-27T10:04:48;0.30;;;0.30;;
65206;SDS011;58477;48.072;11.970;2022-09-27T10:07:14;3.35;;;0.30;;
65206;SDS011;58477;48.072;11.970;2022-09-27T10:09:42;0.30;;;0.30;;
65206;SDS011;58477;48.072;11.970;2022-09-27T10:12:46;0.57;;;0.28;;
65206;SDS011;58477;48.072;11.970;2022-09-27T10:15:24;0.85;;;0.40;;
65206;SDS011;58477;48.072;11.970;2022-09-27T10:17:55;0.57;;;0.30;;
65206;SDS011;58477;48.072;11.970;2022-09-27T10:23:03;0.20;;;0.20;;
65206;SDS011;58477;48.072;11.970;2022-09-27T10:26:11;0.57;;;0.50;;
65206;SDS011;58477;48.072;11.970;2022-09-27T10:28:43;0.45;;;0.30;;
65206;SDS011;58477;48.072;11.970;2022-09-27T10:31:13;0.50;;;0.50;;
65206;SDS011;58477;48.072;11.970;2022-09-27T10:33:59;0.40;;;0.40;;
65206;SDS011;58477;48.072;11.970;2022-09-27T10:36:34;0.30;;;0.30;;
65206;SDS011;58477;48.072;11.970;2022-09-27T10:39:01;0.38;;;0.38;;
65206;SDS011;58477;48.072;11.970;2022-09-27T10:41:42;1.55;;;0.38;;
65206;SDS011;58477;48.072;11.970;2022-09-27T10:47:07;0.98;;;0.30;;
65206;SDS011;58477;48.072;11.970;2022-09-27T10:49:51;0.85;;;0.30;;
65206;SDS011;58477;48.072;11.970;2022-09-27T10:52:44;1.70;;;0.38;;
65206;SDS011;58477;48.072;11.970;2022-09-27T10:55:17;0.20;;;0.20;;
65206;SDS011;58477;48.072;11.970;2022-09-27T10:57:49;0.30;;;0.30;;
65206;SDS011;58477;48.072;11.970;2022-09-27T11:02:54;0.30;;;0.30;;
65206;SDS011;58477;48.072;11.970;2022-09-27T11:10:30;0.40;;;0.40;;
65206;SDS011;58477;48.072;11.970;2022-09-27T11:13:04;0.57;;;0.43;;
65206;SDS011;58477;48.072;11.970;2022-09-27T11:15:54;0.40;;;0.40;;
65206;SDS011;58477;48.072;11.970;2022-09-27T11:30:20;0.40;;;0.40;;
65206;SDS011;58477;48.072;11.970;2022-09-27T11:33:26;0.38;;;0.38;;
65206;SDS011;58477;48.072;11.970;2022-09-27T11:38:57;0.30;;;0.30;;
65206;SDS011;58477;48.072;11.970;2022-09-27T11:41:37;0.30;;;0.30;;
65206;SDS011;58477;48.072;11.970;2022-09-27T11:49:57;0.30;;;0.30;;
65206;SDS011;58477;48.072;11.970;2022-09-27T11:52:52;0.40;;;0.40;;
65206;SDS011;58477;48.072;11.970;2022-09-27T11:55:37;0.50;;;0.30;;
65206;SDS011;58477;48.072;11.970;2022-09-27T12:01:23;0.30;;;0.25;;
65206;SDS011;58477;48.072;11.970;2022-09-27T12:04:35;1.45;;;0.40;;
65206;SDS011;58477;48.072;11.970;2022-09-27T12:09:57;0.20;;;0.20;;
65206;SDS011;58477;48.072;11.970;2022-09-27T12:12:31;0.60;;;0.38;;
65206;SDS011;58477;48.072;11.970;2022-09-27T12:15:01;0.40;;;0.40;;
65206;SDS011;58477;48.072;11.970;2022-09-27T12:17:30;0.30;;;0.30;;
65206;SDS011;58477;48.072;11.970;2022-09-27T12:20:09;1.15;;;0.40;;
65206;SDS011;58477;48.072;11.970;2022-09-27T12:22:59;0.30;;;0.30;;
65206;SDS011;58477;48.072;11.970;2022-09-27T12:25:48;0.32;;;0.32;;
65206;SDS011;58477;48.072;11.970;2022-09-27T12:31:14;0.47;;;0.32;;
65206;SDS011;58477;48.072;11.970;2022-09-27T12:36:36;0.43;;;0.30;;
65206;SDS011;58477;48.072;11.970;2022-09-27T12:42:10;0.50;;;0.30;;
65206;SDS011;58477;48.072;11.970;2022-09-27T12:44:43;0.57;;;0.30;;
65206;SDS011;58477;48.072;11.970;2022-09-27T12:50:21;2.20;;;0.40;;
65206;SDS011;58477;48.072;11.970;2022-09-27T12:52:50;0.22;;;0.22;;
65206;SDS011;58477;48.072;11.970;2022-09-27T13:03:42;0.60;;;0.50;;
65206;SDS011;58477;48.072;11.970;2022-09-27T13:06:34;0.30;;;0.30;;
65206;SDS011;58477;48.072;11.970;2022-09-27T13:12:00;0.80;;;0.38;;
65206;SDS011;58477;48.072;11.970;2022-09-27T13:14:29;0.38;;;0.38;;
65206;SDS011;58477;48.072;11.970;2022-09-27T13:16:59;0.82;;;0.45;;
65206;SDS011;58477;48.072;11.970;2022-09-27T13:21:59;1.67;;;0.68;;
65206;SDS011;58477;48.072;11.970;2022-09-27T13:24:51;2.08;;;0.30;;
65206;SDS011;58477;48.072;11.970;2022-09-27T13:27:55;0.50;;;0.45;;
65206;SDS011;58477;48.072;11.970;2022-09-27T13:33:40;2.10;;;0.50;;
65206;SDS011;58477;48.072;11.970;2022-09-27T13:36:07;1.10;;;0.40;;
65206;SDS011;58477;48.072;11.970;2022-09-27T13:44:33;3.80;;;0.70;;
65206;SDS011;58477;48.072;11.970;2022-09-27T13:47:37;0.73;;;0.47;;
65206;SDS011;58477;48.072;11.970;2022-09-27T13:50:23;1.27;;;0.60;;
65206;SDS011;58477;48.072;11.970;2022-09-27T13:53:05;1.17;;;0.43;;
65206;SDS011;58477;48.072;11.970;2022-09-27T13:55:46;1.40;;;0.60;;
65206;SDS011;58477;48.072;11.970;2022-09-27T13:58:39;0.95;;;0.50;;
65206;SDS011;58477;48.072;11.970;2022-09-27T14:01:29;1.10;;;0.50;;
65206;SDS011;58477;48.072;11.970;2022-09-27T14:03:59;0.88;;;0.60;;
65206;SDS011;58477;48.072;11.970;2022-09-27T14:06:28;1.45;;;0.60;;
65206;SDS011;58477;48.072;11.970;2022-09-27T14:09:02;1.23;;;0.60;;
65206;SDS011;58477;48.072;11.970;2022-09-27T14:11:36;0.68;;;0.50;;
65206;SDS011;58477;48.072;11.970;2022-09-27T14:14:05;2.10;;;0.55;;
65206;SDS011;58477;48.072;11.970;2022-09-27T14:16:41;1.52;;;0.60;;
65206;SDS011;58477;48.072;11.970;2022-09-27T14:19:28;0.80;;;0.50;;
65206;SDS011;58477;48.072;11.970;2022-09-27T14:21:54;0.75;;;0.50;;
65206;SDS011;58477;48.072;11.970;2022-09-27T14:24:31;1.88;;;0.60;;
65206;SDS011;58477;48.072;11.970;2022-09-27T14:27:09;0.52;;;0.47;;
65206;SDS011;58477;48.072;11.970;2022-09-27T14:30:04;0.80;;;0.73;;
65206;SDS011;58477;48.072;11.970;2022-09-27T14:32:28;1.83;;;0.50;;
65206;SDS011;58477;48.072;11.970;2022-09-27T14:35:10;0.38;;;0.30;;
65206;SDS011;58477;48.072;11.970;2022-09-27T14:37:57;0.40;;;0.40;;
65206;SDS011;58477;48.072;11.970;2022-09-27T14:40:24;0.20;;;0.20;;
65206;SDS011;58477;48.072;11.970;2022-09-27T14:42:52;1.33;;;0.40;;
65206;SDS011;58477;48.072;11.970;2022-09-27T14:45:21;0.45;;;0.45;;
65206;SDS011;58477;48.072;11.970;2022-09-27T14:47:51;0.40;;;0.40;;
65206;SDS011;58477;48.072;11.970;2022-09-27T14:50:23;1.67;;;0.30;;
65206;SDS011;58477;48.072;11.970;2022-09-27T14:52:53;0.30;;;0.30;;
65206;SDS011;58477;48.072;11.970;2022-09-27T14:55:24;1.42;;;0.50;;
65206;SDS011;58477;48.072;11.970;2022-09-27T14:57:56;0.30;;;0.30;;
65206;SDS011;58477;48.072;11.970;2022-09-27T15:00:24;0.30;;;0.30;;
65206;SDS011;58477;48.072;11.970;2022-09-27T15:03:03;0.88;;;0.50;;
65206;SDS011;58477;48.072;11.970;2022-09-27T15:05:33;1.30;;;0.40;;
65206;SDS011;58477;48.072;11.970;2022-09-27T15:08:03;0.50;;;0.40;;
65206;SDS011;58477;48.072;11.970;2022-09-27T15:10:32;0.40;;;0.40;;
65206;SDS011;58477;48.072;11.970;2022-09-27T15:12:59;6.47;;;0.55;;
65206;SDS011;58477;48.072;11.970;2022-09-27T15:15:28;1.60;;;0.43;;
65206;SDS011;58477;48.072;11.970;2022-09-27T15:17:57;0.80;;;0.60;;
65206;SDS011;58477;48.072;11.970;2022-09-27T15:20:33;0.85;;;0.55;;
65206;SDS011;58477;48.072;11.970;2022-09-27T15:23:00;0.28;;;0.28;;
65206;SDS011;58477;48.072;11.970;2022-09-27T15:30:36;1.05;;;0.40;;
65206;SDS011;58477;48.072;11.970;2022-09-27T15:33:03;7.00;;;0.55;;
65206;SDS011;58477;48.072;11.970;2022-09-27T15:35:31;0.60;;;0.35;;
65206;SDS011;58477;48.072;11.970;2022-09-27T15:38:09;1.25;;;0.70;;
65206;SDS011;58477;48.072;11.970;2022-09-27T15:43:17;2.35;;;0.57;;
65206;SDS011;58477;48.072;11.970;2022-09-27T15:45:49;2.00;;;0.50;;
65206;SDS011;58477;48.072;11.970;2022-09-27T15:48:16;2.58;;;0.50;;
65206;SDS011;58477;48.072;11.970;2022-09-27T15:50:44;0.50;;;0.50;;
65206;SDS011;58477;48.072;11.970;2022-09-27T15:53:11;1.38;;;0.50;;
65206;SDS011;58477;48.072;11.970;2022-09-27T15:55:40;0.88;;;0.55;;
65206;SDS011;58477;48.072;11.970;2022-09-27T15:58:12;1.67;;;0.60;;
65206;SDS011;58477;48.072;11.970;2022-09-27T16:00:54;0.75;;;0.75;;
65206;SDS011;58477;48.072;11.970;2022-09-27T16:03:21;0.60;;;0.50;;
65206;SDS011;58477;48.072;11.970;2022-09-27T16:05:48;1.65;;;0.60;;
65206;SDS011;58477;48.072;11.970;2022-09-27T16:08:13;2.00;;;0.50;;
65206;SDS011;58477;48.072;11.970;2022-09-27T16:10:40;0.52;;;0.45;;
65206;SDS011;58477;48.072;11.970;2022-09-27T16:13:09;3.10;;;0.65;;
65206;SDS011;58477;48.072;11.970;2022-09-27T16:15:34;1.63;;;0.40;;
65206;SDS011;58477;48.072;11.970;2022-09-27T16:18:01;0.68;;;0.47;;
65206;SDS011;58477;48.072;11.970;2022-09-27T16:20:26;0.50;;;0.50;;
65206;SDS011;58477;48.072;11.970;2022-09-27T16:22:52;3.15;;;0.70;;
65206;SDS011;58477;48.072;11.970;2022-09-27T16:25:19;0.77;;;0.47;;
65206;SDS011;58477;48.072;11.970;2022-09-27T16:27:45;0.80;;;0.80;;
65206;SDS011;58477;48.072;11.970;2022-09-27T16:30:11;0.45;;;0.45;;
65206;SDS011;58477;48.072;11.970;2022-09-27T16:32:41;0.60;;;0.60;;
65206;SDS011;58477;48.072;11.970;2022-09-27T16:35:11;0.82;;;0.50;;
65206;SDS011;58477;48.072;11.970;2022-09-27T16:37:38;0.32;;;0.32;;
65206;SDS011;58477;48.072;11.970;2022-09-27T16:40:04;0.50;;;0.50;;
65206;SDS011;58477;48.072;11.970;2022-09-27T16:42:30;1.23;;;0.50;;
65206;SDS011;58477;48.072;11.970;2022-09-27T16:44:56;1.27;;;0.50;;
65206;SDS011;58477;48.072;11.970;2022-09-27T16:47:21;1.50;;;0.50;;
65206;SDS011;58477;48.072;11.970;2022-09-27T16:49:47;0.80;;;0.32;;
65206;SDS011;58477;48.072;11.970;2022-09-27T16:52:31;2.58;;;0.40;;
65206;SDS011;58477;48.072;11.970;2022-09-27T16:54:57;4.63;;;0.45;;
65206;SDS011;58477;48.072;11.970;2022-09-27T16:57:23;0.45;;;0.40;;
65206;SDS011;58477;48.072;11.970;2022-09-27T16:59:49;1.48;;;0.50;;
65206;SDS011;58477;48.072;11.970;2022-09-27T17:02:14;3.33;;;0.68;;
65206;SDS011;58477;48.072;11.970;2022-09-27T17:04:40;0.50;;;0.50;;
65206;SDS011;58477;48.072;11.970;2022-09-27T17:07:05;3.05;;;0.50;;
65206;SDS011;58477;48.072;11.970;2022-09-27T17:09:31;0.77;;;0.50;;
65206;SDS011;58477;48.072;11.970;2022-09-27T17:11:56;0.75;;;0.50;;
65206;SDS011;58477;48.072;11.970;2022-09-27T17:14:21;2.05;;;0.40;;
65206;SDS011;58477;48.072;11.970;2022-09-27T17:16:47;5.40;;;0.73;;
65206;SDS011;58477;48.072;11.970;2022-09-27T17:19:14;2.60;;;0.60;;
65206;SDS011;58477;48.072;11.970;2022-09-27T17:21:40;0.73;;;0.47;;
65206;SDS011;58477;48.072;11.970;2022-09-27T17:24:07;0.73;;;0.43;;
65206;SDS011;58477;48.072;11.970;2022-09-27T17:26:33;0.73;;;0.63;;
65206;SDS011;58477;48.072;11.970;2022-09-27T17:28:59;0.40;;;0.40;;
65206;SDS011;58477;48.072;11.970;2022-09-27T17:31:25;0.30;;;0.30;;
65206;SDS011;58477;48.072;11.970;2022-09-27T17:33:52;0.50;;;0.50;;
65206;SDS011;58477;48.072;11.970;2022-09-27T17:36:19;0.30;;;0.30;;
65206;SDS011;58477;48.072;11.970;2022-09-27T17:38:46;0.50;;;0.50;;
65206;SDS011;58477;48.072;11.970;2022-09-27T17:41:14;1.48;;;0.57;;
65206;SDS011;58477;48.072;11.970;2022-09-27T17:43:42;0.65;;;0.50;;
65206;SDS011;58477;48.072;11.970;2022-09-27T17:46:14;3.95;;;0.63;;
65206;SDS011;58477;48.072;11.970;2022-09-27T17:48:42;1.40;;;0.43;;
65206;SDS011;58477;48.072;11.970;2022-09-27T17:51:26;2.03;;;0.65;;
65206;SDS011;58477;48.072;11.970;2022-09-27T17:53:51;0.55;;;0.55;;
65206;SDS011;58477;48.072;11.970;2022-09-27T17:56:17;0.40;;;0.40;;
65206;SDS011;58477;48.072;11.970;2022-09-27T17:58:46;0.30;;;0.30;;
65206;SDS011;58477;48.072;11.970;2022-09-27T18:01:13;1.60;;;0.40;;